Time;durP1;ratioP1;P1;durP2;ratioP2;P2;SDS_P1;SDS_P2;PMS_P1;PMS_P2;Temp;Humidity;BMP_temperature;BMP_pressure;BME280_temperature;BME280_humidity;BME280_pressure;Samples;Min_cycle;Max_cycle;Signal;HPM_P1;HPM_P2
2022/11/19 00:00:15;;;;;;;2.60;1.85;;;;;;;;;;8362771;28;20894;-62
2022/11/19 00:04:15;;;;;;;4.28;2.08;;;;;;;;;;8363949;28;20033;-62
2022/11/19 00:08:18;;;;;;;5.63;2.38;;;;;;;;;;8363016;28;20028;-61
2022/11/19 00:16:37;;;;;;;4.70;1.90;;;;;;;;;;8362751;28;20147;-62
2022/11/19 00:20:37;;;;;;;4.57;2.08;;;;;;;;;;8359140;28;20036;-63
2022/11/19 00:24:38;;;;;;;5.20;2.10;;;;;;;;;;8364332;28;20028;-63
2022/11/19 00:28:39;;;;;;;4.38;2.10;;;;;;;;;;8363414;28;20061;-62
2022/11/19 00:32:39;;;;;;;5.85;2.00;;;;;;;;;;8362667;28;21266;-62
2022/11/19 00:36:39;;;;;;;6.43;2.20;;;;;;;;;;8360265;28;20016;-63
2022/11/19 00:40:40;;;;;;;5.25;2.50;;;;;;;;;;8361775;28;20028;-62
2022/11/19 00:44:40;;;;;;;4.18;2.53;;;;;;;;;;8361771;28;20029;-62
2022/11/19 00:48:41;;;;;;;5.03;2.25;;;;;;;;;;8360543;28;20106;-62
2022/11/19 00:52:41;;;;;;;3.67;2.20;;;;;;;;;;8361147;28;20024;-62
2022/11/19 00:56:41;;;;;;;3.85;2.30;;;;;;;;;;8361834;28;20309;-62
2022/11/19 01:00:41;;;;;;;3.78;2.45;;;;;;;;;;8363005;28;20127;-62
2022/11/19 01:04:42;;;;;;;5.00;2.45;;;;;;;;;;8362453;28;20031;-62
2022/11/19 01:08:42;;;;;;;5.78;2.60;;;;;;;;;;8364825;28;20082;-62
2022/11/19 01:17:02;;;;;;;3.65;2.17;;;;;;;;;;8312540;28;20040;-62
2022/11/19 01:21:03;;;;;;;7.60;2.50;;;;;;;;;;8358389;28;21016;-62
2022/11/19 01:25:04;;;;;;;3.90;2.28;;;;;;;;;;8357923;28;21020;-61
2022/11/19 01:29:04;;;;;;;7.95;2.45;;;;;;;;;;8355999;28;20021;-62
2022/11/19 01:33:04;;;;;;;6.53;3.05;;;;;;;;;;8358693;28;20417;-62
2022/11/19 01:37:04;;;;;;;7.22;2.70;;;;;;;;;;8363668;28;20996;-62
2022/11/19 01:41:04;;;;;;;10.18;2.67;;;;;;;;;;8339856;28;20034;-62
2022/11/19 01:45:05;;;;;;;4.20;2.25;;;;;;;;;;8356338;28;20028;-62
2022/11/19 01:49:17;;;;;;;6.65;2.65;;;;;;;;;;8359211;28;20090;-61
2022/11/19 01:53:18;;;;;;;6.45;2.85;;;;;;;;;;8361595;28;20020;-62
2022/11/19 01:57:18;;;;;;;8.43;3.45;;;;;;;;;;8363777;28;20105;-63
2022/11/19 02:01:19;;;;;;;6.13;2.80;;;;;;;;;;8357586;28;20145;-62
2022/11/19 02:05:19;;;;;;;6.72;2.70;;;;;;;;;;8359246;28;20841;-62
2022/11/19 02:09:20;;;;;;;4.63;2.83;;;;;;;;;;8356171;28;20063;-62
2022/11/19 02:13:20;;;;;;;7.10;3.05;;;;;;;;;;8362905;28;20042;-62
2022/11/19 02:17:35;;;;;;;5.63;3.15;;;;;;;;;;8369728;28;20056;-64
2022/11/19 02:21:37;;;;;;;4.50;2.75;;;;;;;;;;8365778;28;20024;-62
2022/11/19 02:25:38;;;;;;;8.98;3.00;;;;;;;;;;8361392;28;21441;-62
2022/11/19 02:29:57;;;;;;;4.65;2.80;;;;;;;;;;8360119;28;20116;-62
2022/11/19 02:34:04;;;;;;;6.10;3.25;;;;;;;;;;8358628;28;20504;-62
2022/11/19 02:38:11;;;;;;;8.18;3.35;;;;;;;;;;8359987;28;20032;-62
2022/11/19 02:42:34;;;;;;;10.20;3.85;;;;;;;;;;8360317;28;20476;-62
2022/11/19 02:46:35;;;;;;;5.03;3.35;;;;;;;;;;8359583;28;20043;-62
2022/11/19 02:50:38;;;;;;;10.55;3.65;;;;;;;;;;8361890;28;20036;-62
2022/11/19 02:54:38;;;;;;;6.43;3.83;;;;;;;;;;8355221;28;20027;-62
2022/11/19 03:07:35;;;;;;;13.27;3.88;;;;;;;;;;8357070;28;20097;-62
2022/11/19 03:11:36;;;;;;;6.07;3.03;;;;;;;;;;8358212;28;20837;-62
2022/11/19 03:20:09;;;;;;;8.20;3.40;;;;;;;;;;8361132;28;20222;-62
2022/11/19 03:24:14;;;;;;;4.43;3.00;;;;;;;;;;8360667;28;20028;-62
2022/11/19 03:28:18;;;;;;;7.45;2.90;;;;;;;;;;8356207;28;20113;-62
2022/11/19 03:32:21;;;;;;;4.05;3.00;;;;;;;;;;8359110;28;20033;-63
2022/11/19 03:36:23;;;;;;;5.60;2.75;;;;;;;;;;8358377;28;20055;-63
2022/11/19 03:40:24;;;;;;;3.92;2.70;;;;;;;;;;8357477;28;20059;-62
2022/11/19 03:44:24;;;;;;;3.65;2.58;;;;;;;;;;8357715;28;20043;-63
2022/11/19 03:48:24;;;;;;;5.22;3.25;;;;;;;;;;8358684;28;20685;-62
2022/11/19 03:52:25;;;;;;;5.72;2.97;;;;;;;;;;8360938;28;20016;-62
2022/11/19 03:56:26;;;;;;;6.53;2.97;;;;;;;;;;8358998;28;20021;-63
2022/11/19 04:00:26;;;;;;;5.32;3.10;;;;;;;;;;8357834;28;20029;-63
2022/11/19 04:04:38;;;;;;;4.65;3.03;;;;;;;;;;8351969;28;20111;-61
2022/11/19 04:08:38;;;;;;;6.15;3.10;;;;;;;;;;8357751;28;20147;-61
2022/11/19 04:12:39;;;;;;;6.50;3.58;;;;;;;;;;8356168;28;20965;-62
2022/11/19 04:16:39;;;;;;;4.03;3.10;;;;;;;;;;8352168;28;20454;-62
2022/11/19 04:20:41;;;;;;;4.78;2.85;;;;;;;;;;8356791;28;20056;-63
2022/11/19 04:24:41;;;;;;;6.07;2.95;;;;;;;;;;8359440;28;20029;-62
2022/11/19 04:28:41;;;;;;;4.65;2.58;;;;;;;;;;8358989;28;21367;-62
2022/11/19 04:32:41;;;;;;;4.78;3.05;;;;;;;;;;8360128;28;20024;-62
2022/11/19 04:36:42;;;;;;;5.63;2.85;;;;;;;;;;8356805;28;20062;-63
2022/11/19 04:40:42;;;;;;;3.90;2.80;;;;;;;;;;8355953;28;20028;-65
2022/11/19 04:44:42;;;;;;;3.90;2.67;;;;;;;;;;8362006;28;20278;-62
2022/11/19 04:48:42;;;;;;;7.40;3.30;;;;;;;;;;8364476;28;20128;-63
2022/11/19 04:52:42;;;;;;;450.00;14.15;;;;;;;;;;8365444;28;20013;-62
2022/11/19 04:56:42;;;;;;;514.22;14.27;;;;;;;;;;8364367;28;20020;-62
2022/11/19 05:00:43;;;;;;;151.13;5.20;;;;;;;;;;8361752;28;20029;-62
2022/11/19 05:04:43;;;;;;;397.70;13.15;;;;;;;;;;8363618;28;20478;-62
2022/11/19 05:08:43;;;;;;;336.35;11.13;;;;;;;;;;8360904;28;20234;-63
2022/11/19 05:12:44;;;;;;;78.85;4.22;;;;;;;;;;8363023;28;20464;-62
2022/11/19 05:16:44;;;;;;;69.68;3.90;;;;;;;;;;8363577;28;20040;-62
2022/11/19 05:20:44;;;;;;;48.50;2.85;;;;;;;;;;8360643;28;20075;-62
2022/11/19 05:24:44;;;;;;;100.30;4.35;;;;;;;;;;8361401;28;20849;-62
2022/11/19 05:28:45;;;;;;;28.77;2.72;;;;;;;;;;8363794;28;20027;-62
2022/11/19 05:32:45;;;;;;;24.70;2.20;;;;;;;;;;8362858;28;20945;-62
2022/11/19 05:36:46;;;;;;;62.20;3.47;;;;;;;;;;8361739;28;20895;-62
2022/11/19 05:40:46;;;;;;;184.20;6.30;;;;;;;;;;8361678;28;20499;-62
2022/11/19 05:44:46;;;;;;;238.13;8.45;;;;;;;;;;8362361;28;20120;-62
2022/11/19 05:48:46;;;;;;;149.00;5.80;;;;;;;;;;8364319;28;20132;-62
2022/11/19 05:52:46;;;;;;;81.45;4.10;;;;;;;;;;8360287;28;20020;-62
2022/11/19 05:56:47;;;;;;;137.60;5.88;;;;;;;;;;8362086;28;20020;-62
2022/11/19 06:00:47;;;;;;;246.30;8.00;;;;;;;;;;8361140;28;20028;-62
2022/11/19 06:04:47;;;;;;;236.52;7.30;;;;;;;;;;8362630;28;20113;-63
2022/11/19 06:08:47;;;;;;;214.40;7.13;;;;;;;;;;8362489;28;20961;-62
2022/11/19 06:12:48;;;;;;;237.77;7.95;;;;;;;;;;8351969;28;20021;-63
2022/11/19 06:16:50;;;;;;;290.92;9.13;;;;;;;;;;8359996;28;20527;-63
2022/11/19 06:20:50;;;;;;;311.80;9.40;;;;;;;;;;8361197;28;20097;-63
2022/11/19 06:24:50;;;;;;;355.30;9.88;;;;;;;;;;8359135;28;20025;-62
2022/11/19 06:28:51;;;;;;;129.77;5.32;;;;;;;;;;8361258;28;20028;-63
2022/11/19 06:32:51;;;;;;;262.15;7.80;;;;;;;;;;8359777;28;20033;-63
2022/11/19 06:36:51;;;;;;;94.45;3.88;;;;;;;;;;8355937;28;20024;-63
2022/11/19 06:40:51;;;;;;;101.15;3.92;;;;;;;;;;8358946;28;20048;-62
2022/11/19 06:44:51;;;;;;;221.18;7.15;;;;;;;;;;8361547;28;20081;-63
2022/11/19 06:48:51;;;;;;;152.52;5.32;;;;;;;;;;8351305;28;20040;-62
2022/11/19 06:52:52;;;;;;;102.88;3.85;;;;;;;;;;8350129;28;20020;-62
2022/11/19 06:56:52;;;;;;;76.15;3.35;;;;;;;;;;8349841;28;20025;-62
2022/11/19 07:00:52;;;;;;;236.43;6.97;;;;;;;;;;8348018;28;20543;-62
2022/11/19 07:04:53;;;;;;;143.77;4.93;;;;;;;;;;8349419;28;20024;-62
2022/11/19 07:08:53;;;;;;;17.00;2.20;;;;;;;;;;8355250;28;20020;-61
2022/11/19 07:12:53;;;;;;;68.65;3.22;;;;;;;;;;8354390;28;20017;-62
2022/11/19 07:16:54;;;;;;;127.15;5.03;;;;;;;;;;8356362;28;20029;-62
2022/11/19 07:20:54;;;;;;;88.30;3.83;;;;;;;;;;8355480;28;20025;-63
2022/11/19 07:24:54;;;;;;;6.85;1.55;;;;;;;;;;8355006;28;20028;-61
2022/11/19 07:28:55;;;;;;;21.55;2.03;;;;;;;;;;8353851;28;20084;-61
2022/11/19 07:32:55;;;;;;;92.82;3.38;;;;;;;;;;8355410;28;20032;-61
2022/11/19 07:36:55;;;;;;;126.53;4.60;;;;;;;;;;8357209;28;20476;-61
2022/11/19 07:40:55;;;;;;;68.05;3.50;;;;;;;;;;8358232;28;20488;-62
2022/11/19 07:44:56;;;;;;;145.82;5.00;;;;;;;;;;8356135;28;20747;-62
2022/11/19 07:48:56;;;;;;;181.18;5.93;;;;;;;;;;8355818;28;20105;-62
2022/11/19 07:52:57;;;;;;;200.30;6.43;;;;;;;;;;8356074;28;20903;-62
2022/11/19 07:56:58;;;;;;;124.10;4.82;;;;;;;;;;8360121;28;20034;-62
2022/11/19 08:01:05;;;;;;;32.33;2.78;;;;;;;;;;8356565;28;20662;-62
2022/11/19 08:05:05;;;;;;;75.95;3.53;;;;;;;;;;8356205;28;20025;-62
2022/11/19 08:09:06;;;;;;;46.47;3.17;;;;;;;;;;8357539;28;20555;-62
2022/11/19 08:13:06;;;;;;;22.47;2.40;;;;;;;;;;8356123;28;20477;-62
2022/11/19 08:21:40;;;;;;;58.58;3.40;;;;;;;;;;8319780;28;20029;-62
2022/11/19 08:25:51;;;;;;;23.13;2.58;;;;;;;;;;8359762;28;20024;-62
2022/11/19 08:29:52;;;;;;;49.85;3.13;;;;;;;;;;8341991;28;20036;-63
2022/11/19 08:33:52;;;;;;;42.80;3.28;;;;;;;;;;8358161;28;20035;-62
2022/11/19 08:37:52;;;;;;;103.72;4.88;;;;;;;;;;8355620;28;20818;-62
2022/11/19 08:46:11;;;;;;;152.20;6.90;;;;;;;;;;8342657;28;20142;-63
2022/11/19 08:50:11;;;;;;;120.60;5.75;;;;;;;;;;8298748;28;20474;-63
2022/11/19 08:54:12;;;;;;;19.05;3.40;;;;;;;;;;8308037;28;20009;-62
2022/11/19 08:58:12;;;;;;;4.82;2.83;;;;;;;;;;8300421;28;20025;-62
2022/11/19 09:02:13;;;;;;;18.35;3.17;;;;;;;;;;8324744;28;20611;-63
2022/11/19 09:06:13;;;;;;;15.20;2.95;;;;;;;;;;8357857;28;20031;-62
2022/11/19 09:10:14;;;;;;;7.35;3.20;;;;;;;;;;8355624;28;20055;-63
2022/11/19 09:14:14;;;;;;;4.75;3.00;;;;;;;;;;8355077;28;20778;-63
2022/11/19 09:18:14;;;;;;;13.23;3.20;;;;;;;;;;8355845;28;21044;-63
2022/11/19 09:22:14;;;;;;;6.25;3.13;;;;;;;;;;8368299;28;20021;-64
2022/11/19 09:26:16;;;;;;;3.50;3.20;;;;;;;;;;8357488;28;20032;-64
2022/11/19 09:30:16;;;;;;;4.60;3.05;;;;;;;;;;8356079;28;20025;-63
2022/11/19 09:34:16;;;;;;;3.65;3.35;;;;;;;;;;8355831;28;20126;-63
2022/11/19 09:38:16;;;;;;;3.45;3.13;;;;;;;;;;8353784;28;20063;-64
2022/11/19 09:42:26;;;;;;;3.67;3.17;;;;;;;;;;8353525;28;20128;-63
2022/11/19 09:46:47;;;;;;;6.40;3.30;;;;;;;;;;8357638;28;20511;-63
2022/11/19 09:51:06;;;;;;;3.83;3.13;;;;;;;;;;8356760;28;20864;-63
2022/11/19 09:55:12;;;;;;;3.28;2.97;;;;;;;;;;8352568;28;20020;-63
2022/11/19 09:59:31;;;;;;;3.28;2.90;;;;;;;;;;8337326;28;20025;-64
2022/11/19 10:03:32;;;;;;;2.65;2.45;;;;;;;;;;8350459;28;20047;-63
2022/11/19 10:07:42;;;;;;;2.30;2.10;;;;;;;;;;8353445;28;20024;-63
2022/11/19 10:11:58;;;;;;;2.70;2.50;;;;;;;;;;8345851;28;20116;-63
2022/11/19 10:16:07;;;;;;;2.25;2.05;;;;;;;;;;8349435;28;21021;-63
2022/11/19 10:20:10;;;;;;;2.30;2.10;;;;;;;;;;8347367;28;20075;-63
2022/11/19 10:24:17;;;;;;;2.13;1.95;;;;;;;;;;8351731;28;20020;-63
2022/11/19 10:28:25;;;;;;;2.28;2.08;;;;;;;;;;8351244;28;20028;-63
2022/11/19 10:32:28;;;;;;;1.95;1.83;;;;;;;;;;8352409;28;20037;-63
2022/11/19 10:36:35;;;;;;;2.05;1.95;;;;;;;;;;8351734;28;20032;-63
2022/11/19 10:40:39;;;;;;;2.30;2.10;;;;;;;;;;8355530;28;20119;-64
2022/11/19 10:44:41;;;;;;;4.75;1.60;;;;;;;;;;8356005;28;20107;-63
2022/11/19 10:48:42;;;;;;;1.83;1.73;;;;;;;;;;8356462;28;20811;-63
2022/11/19 10:52:45;;;;;;;2.03;1.85;;;;;;;;;;8363588;28;20012;-63
2022/11/19 10:56:45;;;;;;;1.50;1.40;;;;;;;;;;8361582;28;20025;-64
2022/11/19 11:00:45;;;;;;;2.13;1.58;;;;;;;;;;8360670;28;20155;-63
2022/11/19 11:04:59;;;;;;;1.63;1.52;;;;;;;;;;8337718;28;20056;-63
2022/11/19 11:09:00;;;;;;;2.00;1.90;;;;;;;;;;8350915;28;20035;-63
2022/11/19 11:17:46;;;;;;;1.85;1.58;;;;;;;;;;8323646;28;20083;-63
2022/11/19 11:21:50;;;;;;;1.60;1.50;;;;;;;;;;8348884;28;20639;-64
2022/11/19 11:26:02;;;;;;;1.83;1.73;;;;;;;;;;8352044;28;20021;-63
2022/11/19 11:30:12;;;;;;;1.70;1.60;;;;;;;;;;8353124;28;20111;-63
2022/11/19 11:34:24;;;;;;;1.55;1.45;;;;;;;;;;8355209;28;20016;-63
2022/11/19 11:38:25;;;;;;;1.88;1.70;;;;;;;;;;8357691;28;20020;-63
2022/11/19 11:42:27;;;;;;;1.65;1.55;;;;;;;;;;8354024;28;20108;-63
2022/11/19 11:46:35;;;;;;;1.80;1.70;;;;;;;;;;8354527;28;20631;-63
2022/11/19 11:50:36;;;;;;;2.47;1.80;;;;;;;;;;8357128;28;20025;-63
2022/11/19 11:54:37;;;;;;;3.08;2.20;;;;;;;;;;8365695;28;20027;-63
2022/11/19 11:58:37;;;;;;;2.28;2.08;;;;;;;;;;8369651;28;20385;-63
2022/11/19 12:02:37;;;;;;;2.22;2.03;;;;;;;;;;8364884;28;20089;-63
2022/11/19 12:06:44;;;;;;;2.50;2.27;;;;;;;;;;8360652;28;21265;-63
2022/11/19 12:10:50;;;;;;;1.80;1.70;;;;;;;;;;8346603;28;20768;-63
2022/11/19 12:14:59;;;;;;;1.88;1.77;;;;;;;;;;8358994;28;20647;-63
2022/11/19 12:19:15;;;;;;;1.75;1.50;;;;;;;;;;8314353;28;20083;-63
2022/11/19 12:23:24;;;;;;;1.60;1.50;;;;;;;;;;8296086;28;20078;-63
2022/11/19 12:27:40;;;;;;;1.70;1.60;;;;;;;;;;8311223;28;20479;-61
2022/11/19 12:31:44;;;;;;;2.15;2.00;;;;;;;;;;8326797;28;20036;-62
2022/11/19 12:35:53;;;;;;;2.40;2.20;;;;;;;;;;8347923;28;20016;-62
2022/11/19 12:39:57;;;;;;;2.72;2.53;;;;;;;;;;8344315;28;20048;-61
2022/11/19 12:44:06;;;;;;;4.85;3.17;;;;;;;;;;8346984;28;20207;-61
2022/11/19 12:48:27;;;;;;;15.43;3.80;;;;;;;;;;8345678;28;20029;-61
2022/11/19 12:52:36;;;;;;;13.90;4.28;;;;;;;;;;8346935;28;20040;-62
2022/11/19 12:56:39;;;;;;;20.10;4.57;;;;;;;;;;8346798;28;20067;-62
2022/11/19 13:00:45;;;;;;;20.25;4.43;;;;;;;;;;8343514;28;20853;-62
2022/11/19 13:04:50;;;;;;;8.85;4.43;;;;;;;;;;8342514;28;20025;-61
2022/11/19 13:08:56;;;;;;;5.70;4.30;;;;;;;;;;8340849;28;20032;-62
2022/11/19 13:12:57;;;;;;;8.75;4.50;;;;;;;;;;8341652;28;20090;-62
2022/11/19 13:16:57;;;;;;;13.43;4.50;;;;;;;;;;8339051;28;20029;-62
2022/11/19 13:21:04;;;;;;;44.58;5.20;;;;;;;;;;8342697;28;20021;-62
2022/11/19 13:25:19;;;;;;;7.25;4.78;;;;;;;;;;8342367;28;20021;-62
2022/11/19 13:29:25;;;;;;;12.60;4.80;;;;;;;;;;8339997;28;20648;-61
2022/11/19 13:33:31;;;;;;;4.65;4.20;;;;;;;;;;8339531;28;20140;-62
2022/11/19 13:37:49;;;;;;;4.28;3.88;;;;;;;;;;8340315;28;20360;-62
2022/11/19 13:46:29;;;;;;;3.60;3.30;;;;;;;;;;8338484;28;20099;-61
2022/11/19 13:50:31;;;;;;;3.33;3.03;;;;;;;;;;8339445;28;20056;-61
2022/11/19 13:54:36;;;;;;;3.15;2.85;;;;;;;;;;8337718;28;20025;-61
2022/11/19 13:58:37;;;;;;;3.10;2.80;;;;;;;;;;8340872;28;20736;-62
2022/11/19 14:02:43;;;;;;;3.00;2.70;;;;;;;;;;8339524;28;20087;-62
2022/11/19 14:07:02;;;;;;;2.50;2.30;;;;;;;;;;8339651;28;20867;-61
2022/11/19 14:11:21;;;;;;;2.40;2.20;;;;;;;;;;8340797;28;20025;-61
2022/11/19 14:28:46;;;;;;;3.25;2.95;;;;;;;;;;8336579;28;20138;-62
2022/11/19 14:32:48;;;;;;;3.75;3.35;;;;;;;;;;8339273;28;20029;-62
2022/11/19 14:36:50;;;;;;;4.88;4.03;;;;;;;;;;8338620;28;20033;-62
2022/11/19 14:41:00;;;;;;;4.60;4.05;;;;;;;;;;8339884;28;20024;-62
2022/11/19 14:45:01;;;;;;;4.38;3.95;;;;;;;;;;8338385;28;20878;-62
2022/11/19 14:49:03;;;;;;;32.05;5.32;;;;;;;;;;8337770;28;20099;-61
2022/11/19 14:53:03;;;;;;;29.80;5.13;;;;;;;;;;8338199;28;20024;-62
2022/11/19 14:57:05;;;;;;;98.63;6.97;;;;;;;;;;8336867;28;20028;-62
2022/11/19 15:01:07;;;;;;;70.50;6.85;;;;;;;;;;8326312;28;20029;-62
2022/11/19 15:05:27;;;;;;;53.22;5.95;;;;;;;;;;8336707;28;20091;-61
2022/11/19 15:09:49;;;;;;;15.82;5.15;;;;;;;;;;8335723;28;20032;-62
2022/11/19 15:14:08;;;;;;;44.30;5.70;;;;;;;;;;8335543;28;20059;-61
2022/11/19 15:18:11;;;;;;;7.47;4.50;;;;;;;;;;8336827;28;20033;-61
2022/11/19 15:22:14;;;;;;;5.95;4.95;;;;;;;;;;8337851;28;20017;-62
2022/11/19 15:26:18;;;;;;;5.18;4.43;;;;;;;;;;8336646;28;20025;-62
2022/11/19 15:30:30;;;;;;;5.78;4.30;;;;;;;;;;8336997;28;20140;-62
2022/11/19 15:34:37;;;;;;;9.80;4.32;;;;;;;;;;8336823;28;20029;-61
2022/11/19 15:38:40;;;;;;;4.50;4.10;;;;;;;;;;8338193;28;20025;-61
2022/11/19 15:43:00;;;;;;;7.25;4.22;;;;;;;;;;8318116;28;20025;-61
2022/11/19 15:47:03;;;;;;;6.32;3.83;;;;;;;;;;8326405;28;20044;-61
2022/11/19 15:51:03;;;;;;;3.63;3.33;;;;;;;;;;8338349;28;20021;-62
2022/11/19 15:55:09;;;;;;;3.95;3.50;;;;;;;;;;8336254;28;20067;-62
2022/11/19 15:59:11;;;;;;;3.40;3.10;;;;;;;;;;8335641;28;20804;-62
2022/11/19 16:03:12;;;;;;;3.10;2.75;;;;;;;;;;8337673;28;20033;-62
2022/11/19 16:07:12;;;;;;;4.10;2.80;;;;;;;;;;8336518;28;20541;-63
2022/11/19 16:20:20;;;;;;;4.68;2.97;;;;;;;;;;8288454;28;20044;-61
2022/11/19 16:28:41;;;;;;;3.45;3.05;;;;;;;;;;8335605;28;20122;-62
2022/11/19 16:32:42;;;;;;;3.50;3.20;;;;;;;;;;8336447;28;20139;-64
2022/11/19 16:36:45;;;;;;;3.90;3.20;;;;;;;;;;8336990;28;20028;-61
2022/11/19 16:45:20;;;;;;;5.57;4.35;;;;;;;;;;8298270;28;20058;-61
2022/11/19 16:49:27;;;;;;;7.68;5.35;;;;;;;;;;8339826;28;20041;-61
2022/11/19 16:53:43;;;;;;;6.45;5.40;;;;;;;;;;8342256;28;20918;-62
2022/11/19 16:57:47;;;;;;;6.28;5.28;;;;;;;;;;8339521;28;20077;-62
2022/11/19 17:01:48;;;;;;;;;;;;;;;;;;8340645;28;20131;-62
2022/11/19 17:05:50;;;;;;;7.80;5.28;;;;;;;;;;8342161;28;20677;-61
2022/11/19 17:10:06;;;;;;;8.10;6.03;;;;;;;;;;8339991;28;20151;-61
2022/11/19 17:14:09;;;;;;;7.10;5.38;;;;;;;;;;8340489;28;20059;-62
2022/11/19 17:18:17;;;;;;;7.72;5.20;;;;;;;;;;8340000;28;20033;-62
2022/11/19 17:22:22;;;;;;;6.95;5.80;;;;;;;;;;8341040;28;20032;-61
2022/11/19 17:26:26;;;;;;;7.57;5.68;;;;;;;;;;8332385;28;20031;-66
2022/11/19 17:30:32;;;;;;;6.00;5.05;;;;;;;;;;8339780;28;20041;-61
2022/11/19 17:34:41;;;;;;;7.40;5.57;;;;;;;;;;8340301;28;20048;-61
2022/11/19 17:38:41;;;;;;;6.13;4.90;;;;;;;;;;8341437;28;20037;-61
2022/11/19 17:47:03;;;;;;;6.50;5.30;;;;;;;;;;8340119;28;20098;-61
2022/11/19 17:51:03;;;;;;;5.95;5.28;;;;;;;;;;8339005;28;20545;-62
2022/11/19 17:55:16;;;;;;;7.07;5.55;;;;;;;;;;8339568;28;20039;-61
2022/11/19 17:59:16;;;;;;;9.00;6.95;;;;;;;;;;8339079;28;20103;-62
2022/11/19 18:03:17;;;;;;;10.15;8.00;;;;;;;;;;8335600;28;20576;-62
2022/11/19 18:07:17;;;;;;;11.82;8.27;;;;;;;;;;8328742;28;20578;-63
2022/11/19 18:11:18;;;;;;;9.52;7.30;;;;;;;;;;8329409;28;20346;-62
2022/11/19 18:15:19;;;;;;;10.48;7.65;;;;;;;;;;8325947;28;20362;-62
2022/11/19 18:19:23;;;;;;;11.20;8.32;;;;;;;;;;8326935;28;20338;-62
2022/11/19 18:23:24;;;;;;;12.40;9.25;;;;;;;;;;8328266;28;20028;-63
2022/11/19 18:27:24;;;;;;;10.57;8.55;;;;;;;;;;8326972;28;20468;-63
2022/11/19 18:31:26;;;;;;;12.52;9.02;;;;;;;;;;8325930;28;20147;-63
2022/11/19 18:35:26;;;;;;;12.23;9.07;;;;;;;;;;8325534;28;20029;-63
2022/11/19 18:39:27;;;;;;;11.98;8.82;;;;;;;;;;8328190;28;20677;-63
2022/11/19 18:47:46;;;;;;;11.43;7.80;;;;;;;;;;8325731;28;20127;-63
2022/11/19 18:51:46;;;;;;;10.80;8.40;;;;;;;;;;8326561;28;20016;-63
2022/11/19 18:55:47;;;;;;;10.25;7.82;;;;;;;;;;8324834;28;20073;-63
2022/11/19 18:59:47;;;;;;;11.57;8.25;;;;;;;;;;8310453;28;20111;-63
2022/11/19 19:03:49;;;;;;;12.25;8.70;;;;;;;;;;8325905;28;20675;-62
2022/11/19 19:07:49;;;;;;;11.38;8.38;;;;;;;;;;8347371;28;20199;-62
2022/11/19 19:16:09;;;;;;;11.10;8.80;;;;;;;;;;8334546;28;20039;-63
2022/11/19 19:20:09;;;;;;;12.27;9.02;;;;;;;;;;8334561;28;20033;-62
2022/11/19 19:24:10;;;;;;;13.30;9.20;;;;;;;;;;8332212;28;20590;-62
2022/11/19 19:28:10;;;;;;;13.13;10.00;;;;;;;;;;8334804;28;20086;-62
2022/11/19 19:32:10;;;;;;;13.07;9.65;;;;;;;;;;8332957;28;20044;-63
2022/11/19 19:36:10;;;;;;;13.65;9.93;;;;;;;;;;8333478;28;20104;-62
2022/11/19 19:40:11;;;;;;;12.93;10.23;;;;;;;;;;8334791;28;20082;-62
2022/11/19 19:44:11;;;;;;;12.93;9.45;;;;;;;;;;8336765;28;20025;-63
2022/11/19 19:48:11;;;;;;;13.90;9.98;;;;;;;;;;8332631;28;20029;-62
2022/11/19 19:52:12;;;;;;;11.93;9.27;;;;;;;;;;8336059;28;20025;-62
2022/11/19 19:56:13;;;;;;;14.75;10.00;;;;;;;;;;8333980;28;20017;-62
2022/11/19 20:00:14;;;;;;;14.45;10.13;;;;;;;;;;8333399;28;20027;-63
2022/11/19 20:04:14;;;;;;;14.70;10.02;;;;;;;;;;8334914;28;20099;-63
2022/11/19 20:08:14;;;;;;;12.15;9.85;;;;;;;;;;8334521;28;20025;-62
2022/11/19 20:12:14;;;;;;;12.88;9.55;;;;;;;;;;8333853;28;20078;-62
2022/11/19 20:16:16;;;;;;;13.85;10.00;;;;;;;;;;8342487;28;20032;-63
2022/11/19 20:20:16;;;;;;;14.15;10.38;;;;;;;;;;8341338;28;20829;-64
2022/11/19 20:24:18;;;;;;;14.27;9.70;;;;;;;;;;8342327;28;20028;-63
2022/11/19 20:28:19;;;;;;;20.38;8.75;;;;;;;;;;8341321;28;20040;-62
2022/11/19 20:32:19;;;;;;;11.35;8.52;;;;;;;;;;8339649;28;20206;-63
2022/11/19 20:36:19;;;;;;;12.40;8.40;;;;;;;;;;8340105;28;20122;-63
2022/11/19 20:40:19;;;;;;;12.23;8.85;;;;;;;;;;8342083;28;20060;-63
2022/11/19 20:44:20;;;;;;;13.32;9.52;;;;;;;;;;8338844;28;20024;-62
2022/11/19 20:48:20;;;;;;;12.40;9.40;;;;;;;;;;8339076;28;20021;-64
2022/11/19 20:52:21;;;;;;;12.10;8.93;;;;;;;;;;8341379;28;20025;-62
2022/11/19 20:56:21;;;;;;;13.10;9.32;;;;;;;;;;8339294;28;20048;-62
2022/11/19 21:00:22;;;;;;;12.20;9.05;;;;;;;;;;8337080;28;20043;-62
2022/11/19 21:04:23;;;;;;;18.27;9.25;;;;;;;;;;8337527;28;20359;-63
2022/11/19 21:08:24;;;;;;;12.30;8.73;;;;;;;;;;8338848;28;20111;-63
2022/11/19 21:12:24;;;;;;;17.90;9.00;;;;;;;;;;8338985;28;20375;-63
2022/11/19 21:16:24;;;;;;;13.23;9.35;;;;;;;;;;8339445;28;20537;-62
2022/11/19 21:20:25;;;;;;;13.23;9.13;;;;;;;;;;8338741;28;20024;-62
2022/11/19 21:24:25;;;;;;;14.07;10.15;;;;;;;;;;8336785;28;20786;-62
2022/11/19 21:28:25;;;;;;;17.38;10.25;;;;;;;;;;8339403;28;20056;-63
2022/11/19 21:32:25;;;;;;;16.50;10.75;;;;;;;;;;8338754;28;20037;-64
2022/11/19 21:36:25;;;;;;;13.05;8.90;;;;;;;;;;8338618;28;20037;-67
2022/11/19 21:40:25;;;;;;;11.90;8.30;;;;;;;;;;8339945;28;20075;-62
2022/11/19 21:44:26;;;;;;;14.50;10.35;;;;;;;;;;8338189;28;20023;-62
2022/11/19 21:48:26;;;;;;;14.57;10.55;;;;;;;;;;8338201;28;20867;-62
2022/11/19 21:52:27;;;;;;;14.50;9.98;;;;;;;;;;8337729;28;20283;-62
2022/11/19 21:56:28;;;;;;;12.07;9.18;;;;;;;;;;8337262;28;20032;-62
2022/11/19 22:00:29;;;;;;;16.98;10.38;;;;;;;;;;8336061;28;20063;-62
2022/11/19 22:04:29;;;;;;;14.48;9.15;;;;;;;;;;8335421;28;20090;-62
2022/11/19 22:08:30;;;;;;;11.60;8.43;;;;;;;;;;8336534;28;20028;-62
2022/11/19 22:12:30;;;;;;;11.70;8.90;;;;;;;;;;8337410;28;20910;-63
2022/11/19 22:16:32;;;;;;;12.05;9.05;;;;;;;;;;8335023;28;20025;-63
2022/11/19 22:20:32;;;;;;;13.75;9.63;;;;;;;;;;8336468;28;20079;-62
2022/11/19 22:24:32;;;;;;;11.93;8.88;;;;;;;;;;8336731;28;20037;-62
2022/11/19 22:28:33;;;;;;;12.50;8.48;;;;;;;;;;8336624;28;20140;-63
2022/11/19 22:32:33;;;;;;;11.68;8.85;;;;;;;;;;8336424;28;20454;-62
2022/11/19 22:36:33;;;;;;;11.32;7.78;;;;;;;;;;8336113;28;20723;-62
2022/11/19 22:40:33;;;;;;;10.70;8.48;;;;;;;;;;8337623;28;20219;-62
2022/11/19 22:44:34;;;;;;;10.93;8.15;;;;;;;;;;8338277;28;20557;-62
2022/11/19 22:48:34;;;;;;;10.18;7.65;;;;;;;;;;8337193;28;20075;-62
2022/11/19 22:52:34;;;;;;;9.88;8.00;;;;;;;;;;8338317;28;20040;-62
2022/11/19 22:56:34;;;;;;;11.40;8.68;;;;;;;;;;8333564;28;20035;-63
2022/11/19 23:00:38;;;;;;;10.60;7.95;;;;;;;;;;8334301;28;20061;-62
2022/11/19 23:04:38;;;;;;;10.65;8.30;;;;;;;;;;8334976;28;20025;-62
2022/11/19 23:08:38;;;;;;;12.95;8.82;;;;;;;;;;8333751;28;20035;-62
2022/11/19 23:16:57;;;;;;;10.85;8.43;;;;;;;;;;8331904;28;20036;-62
2022/11/19 23:20:59;;;;;;;11.85;8.88;;;;;;;;;;8332494;28;20573;-64
2022/11/19 23:24:59;;;;;;;12.43;9.02;;;;;;;;;;8320449;28;20021;-63
2022/11/19 23:29:00;;;;;;;10.77;8.38;;;;;;;;;;8334606;28;20070;-62
2022/11/19 23:33:00;;;;;;;10.33;8.00;;;;;;;;;;8336570;28;20887;-64
2022/11/19 23:37:00;;;;;;;9.82;7.53;;;;;;;;;;8335127;28;21076;-62
2022/11/19 23:41:01;;;;;;;10.25;7.80;;;;;;;;;;8335172;28;20033;-63
2022/11/19 23:45:01;;;;;;;10.73;8.05;;;;;;;;;;8335946;28;20020;-62
2022/11/19 23:49:02;;;;;;;9.57;7.45;;;;;;;;;;8332180;28;20131;-63
2022/11/19 23:53:02;;;;;;;9.50;7.38;;;;;;;;;;8336917;28;20032;-63
2022/11/19 23:57:02;;;;;;;10.63;7.53;;;;;;;;;;8334464;28;20112;-63
